KTYR

Tyler Pounds Regional Airport

Tyler, Texas, USA
KTYR 160543Z 1606/1706 34003KT P6SM FEW300 FM161200 VRB03KT P6SM SCT300 FM161800 20006KT P6SM BKN250 FM170000 00000KT P6SM BKN250
Issued Valid From Valid To
Dec-16 @ 05:43 UTC
(8 minutes ago)
Dec-16 @ 06:00 UTC
(in 9 minutes)
Dec-17 @ 06:00 UTC
(in 24 hours)
Dec-16 @ 06:00 to Dec-16 @ 12:00
KTYR 160543Z 1606/1706 34003KT P6SM FEW300
Wind Visibility Clouds
340° at 3 knots Greater than 6 miles
  • Few at 30,000' AGL
From Dec-16 @ 12:00 to Dec-16 @ 18:00
FM161200 VRB03KT P6SM SCT300
Wind Visibility Clouds
Variable at 3 knots Greater than 6 miles
  • Scattered at 30,000' AGL
From Dec-16 @ 18:00 to Dec-17 @ 00:00
FM161800 20006KT P6SM BKN250
Wind Visibility Clouds
200° at 6 knots Greater than 6 miles
  • Broken at 25,000' AGL
From Dec-17 @ 00:00 to Dec-17 @ 06:00
FM170000 00000KT P6SM BKN250
Visibility Clouds
Greater than 6 miles
  • Broken at 25,000' AGL
KTYR 160543Z 1606/1706 34003KT P6SM FEW300 FM161200 VRB03KT P6SM SCT300 FM161800 20006KT P6SM BKN250 FM170000 00000KT P6SM BKN250
Issued Dec-16 @ 05:43 UTC
(8 minutes ago)
Valid From Dec-16 @ 06:00 UTC
(in 9 minutes)
Valid To Dec-17 @ 06:00 UTC
(in 24 hours)
Dec-16 @ 06:00 - Dec-16 @ 12:00
Wind Visibility
340° at 3 knots Greater than 6 miles
Clouds
  • Few at 30,000' AGL
From Dec-16 @ 12:00 - Dec-16 @ 18:00
Wind Visibility
Variable at 3 knots Greater than 6 miles
Clouds
  • Scattered at 30,000' AGL
From Dec-16 @ 18:00 - Dec-17 @ 00:00
Wind Visibility
200° at 6 knots Greater than 6 miles
Clouds
  • Broken at 25,000' AGL
From Dec-17 @ 00:00 - Dec-17 @ 06:00
Clouds
  • Broken at 25,000' AGL